Time;durP1;ratioP1;P1;durP2;ratioP2;P2;SDS_P1;SDS_P2;PMS_P1;PMS_P2;Temp;Humidity;BMP_temperature;BMP_pressure;BME280_temperature;BME280_humidity;BME280_pressure;Samples;Min_cycle;Max_cycle;Signal;HPM_P1;HPM_P2
2021/04/14 00:01:19;;;;;;;13.57;8.13;;;;;;;;;;5053067;28;20465;-66
2021/04/14 00:03:45;;;;;;;11.70;7.30;;;;;;;;;;5052990;28;20451;-66
2021/04/14 00:06:12;;;;;;;11.90;6.83;;;;;;;;;;5035120;28;20478;-66
2021/04/14 00:08:38;;;;;;;15.47;7.37;;;;;;;;;;5054363;28;20395;-66
2021/04/14 00:11:05;;;;;;;13.10;8.00;;;;;;;;;;5053351;28;20432;-66
2021/04/14 00:13:37;;;;;;;11.33;7.20;;;;;;;;;;5054606;28;20413;-66
2021/04/14 00:16:03;;;;;;;12.60;7.83;;;;;;;;;;5052750;28;20432;-66
2021/04/14 00:18:29;;;;;;;11.57;7.27;;;;;;;;;;5053454;28;20888;-66
2021/04/14 00:20:55;;;;;;;9.43;7.00;;;;;;;;;;5052695;28;20518;-66
2021/04/14 00:23:23;;;;;;;9.90;7.03;;;;;;;;;;5053360;28;20403;-66
2021/04/14 00:25:50;;;;;;;7.47;5.80;;;;;;;;;;5052553;28;20474;-66
2021/04/14 00:28:17;;;;;;;11.00;7.40;;;;;;;;;;5053362;28;20403;-66
2021/04/14 00:30:45;;;;;;;9.70;6.93;;;;;;;;;;5052200;28;20432;-66
2021/04/14 00:33:11;;;;;;;8.40;6.53;;;;;;;;;;5053416;28;20438;-66
2021/04/14 00:35:37;;;;;;;10.90;6.73;;;;;;;;;;5050262;28;20444;-67
2021/04/14 00:38:04;;;;;;;12.27;6.93;;;;;;;;;;5033234;28;20398;-66
2021/04/14 00:40:31;;;;;;;10.03;7.90;;;;;;;;;;5035550;28;20430;-66
2021/04/14 00:42:58;;;;;;;9.67;6.60;;;;;;;;;;5053214;28;20423;-66
2021/04/14 00:45:24;;;;;;;8.27;6.20;;;;;;;;;;5051207;28;20885;-66
2021/04/14 00:47:50;;;;;;;15.43;7.00;;;;;;;;;;5033273;28;20405;-66
2021/04/14 00:50:18;;;;;;;12.73;7.50;;;;;;;;;;5015377;28;20898;-67
2021/04/14 00:52:44;;;;;;;9.90;6.47;;;;;;;;;;5053165;28;20408;-66
2021/04/14 00:55:13;;;;;;;10.97;6.67;;;;;;;;;;5052907;28;20457;-66
2021/04/14 00:57:39;;;;;;;8.33;6.30;;;;;;;;;;5052003;28;20865;-66
2021/04/14 01:00:06;;;;;;;15.43;7.03;;;;;;;;;;5053105;28;20450;-66
2021/04/14 01:02:32;;;;;;;10.17;5.90;;;;;;;;;;5052293;28;20430;-66
2021/04/14 01:04:58;;;;;;;9.60;5.10;;;;;;;;;;5052924;28;20461;-66
2021/04/14 01:07:24;;;;;;;9.23;6.43;;;;;;;;;;5052067;28;20426;-66
2021/04/14 01:09:50;;;;;;;8.00;5.43;;;;;;;;;;5052248;28;20422;-66
2021/04/14 01:12:16;;;;;;;7.57;5.30;;;;;;;;;;5051885;28;20422;-66
2021/04/14 01:14:43;;;;;;;9.93;5.53;;;;;;;;;;5053218;28;20423;-66
2021/04/14 01:17:09;;;;;;;10.97;6.13;;;;;;;;;;5041611;28;20911;-66
2021/04/14 01:19:35;;;;;;;7.13;5.60;;;;;;;;;;5033336;28;20498;-66
2021/04/14 01:22:01;;;;;;;9.27;5.90;;;;;;;;;;5040801;28;20433;-67
2021/04/14 01:24:27;;;;;;;9.00;6.10;;;;;;;;;;5052755;28;20468;-66
2021/04/14 01:26:53;;;;;;;7.20;5.27;;;;;;;;;;5051922;28;20776;-66
2021/04/14 01:29:19;;;;;;;8.10;6.10;;;;;;;;;;5052743;28;20783;-66
2021/04/14 01:31:45;;;;;;;12.00;5.87;;;;;;;;;;5051885;28;20422;-66
2021/04/14 01:34:13;;;;;;;6.80;4.90;;;;;;;;;;5052444;28;20418;-66
2021/04/14 01:36:39;;;;;;;7.40;5.40;;;;;;;;;;5051530;28;20852;-66
2021/04/14 01:39:06;;;;;;;8.67;5.80;;;;;;;;;;5052844;28;20508;-66
2021/04/14 01:41:32;;;;;;;8.80;5.27;;;;;;;;;;5051026;28;20427;-66
2021/04/14 01:43:58;;;;;;;11.70;5.13;;;;;;;;;;5052242;28;20429;-66
2021/04/14 01:46:24;;;;;;;12.70;6.97;;;;;;;;;;5049742;28;20884;-66
2021/04/14 01:48:50;;;;;;;6.23;5.23;;;;;;;;;;5042803;28;20476;-66
2021/04/14 01:51:16;;;;;;;8.57;5.73;;;;;;;;;;5051414;28;20455;-67
2021/04/14 01:53:42;;;;;;;6.83;5.30;;;;;;;;;;5052244;28;20486;-66
2021/04/14 01:56:08;;;;;;;8.30;5.30;;;;;;;;;;5052812;28;20398;-66
2021/04/14 01:58:34;;;;;;;7.50;5.27;;;;;;;;;;5032849;28;20521;-66
2021/04/14 02:01:01;;;;;;;7.90;5.40;;;;;;;;;;5032481;28;20414;-66
2021/04/14 02:03:29;;;;;;;11.87;6.17;;;;;;;;;;5050096;28;20448;-66
2021/04/14 02:05:55;;;;;;;5.83;4.37;;;;;;;;;;5052178;28;20503;-66
2021/04/14 02:08:21;;;;;;;8.70;5.47;;;;;;;;;;5051404;28;20530;-65
2021/04/14 02:10:47;;;;;;;8.50;5.50;;;;;;;;;;5054012;28;20401;-66
2021/04/14 02:13:16;;;;;;;8.10;5.70;;;;;;;;;;5039245;28;20478;-66
2021/04/14 02:15:42;;;;;;;9.17;6.20;;;;;;;;;;5035884;28;20409;-66
2021/04/14 02:18:08;;;;;;;6.30;4.77;;;;;;;;;;5036300;28;20539;-66
2021/04/14 02:20:34;;;;;;;6.73;4.33;;;;;;;;;;5035872;28;20404;-66
2021/04/14 02:23:11;;;;;;;7.87;5.70;;;;;;;;;;5039326;28;20434;-65
2021/04/14 02:25:37;;;;;;;8.67;5.20;;;;;;;;;;5036019;28;20504;-65
2021/04/14 02:28:03;;;;;;;9.37;5.83;;;;;;;;;;5049308;28;20422;-66
2021/04/14 02:30:30;;;;;;;6.70;5.03;;;;;;;;;;5055809;28;20398;-66
2021/04/14 02:32:56;;;;;;;6.83;5.03;;;;;;;;;;5054590;28;20427;-66
2021/04/14 02:35:24;;;;;;;8.30;4.83;;;;;;;;;;5055622;28;20427;-65
2021/04/14 02:37:50;;;;;;;9.20;5.70;;;;;;;;;;5054690;28;20434;-65
2021/04/14 02:40:17;;;;;;;8.67;5.80;;;;;;;;;;5055474;28;20601;-66
2021/04/14 02:42:43;;;;;;;9.93;5.57;;;;;;;;;;5054523;28;20954;-65
2021/04/14 02:45:10;;;;;;;9.93;5.90;;;;;;;;;;5055158;28;20451;-65
2021/04/14 02:47:36;;;;;;;9.70;6.20;;;;;;;;;;5045517;28;20921;-65
2021/04/14 02:50:04;;;;;;;6.60;5.47;;;;;;;;;;5035373;28;20822;-67
2021/04/14 02:52:30;;;;;;;8.77;6.17;;;;;;;;;;5042844;28;20463;-64
2021/04/14 02:54:56;;;;;;;9.73;6.40;;;;;;;;;;5055043;28;20503;-67
2021/04/14 02:57:22;;;;;;;9.20;5.70;;;;;;;;;;5050542;28;20441;-66
2021/04/14 02:59:48;;;;;;;8.67;5.67;;;;;;;;;;5055466;28;20883;-65
2021/04/14 03:02:14;;;;;;;10.03;5.73;;;;;;;;;;5053974;28;20826;-65
2021/04/14 03:04:40;;;;;;;9.30;5.77;;;;;;;;;;5055104;28;20463;-66
2021/04/14 03:07:06;;;;;;;9.27;6.33;;;;;;;;;;5050578;28;20428;-66
2021/04/14 03:09:33;;;;;;;9.37;6.47;;;;;;;;;;5035270;28;20760;-65
2021/04/14 03:11:59;;;;;;;7.80;5.60;;;;;;;;;;5035066;28;20432;-65
2021/04/14 03:14:25;;;;;;;10.73;5.77;;;;;;;;;;5035161;28;20425;-65
2021/04/14 03:16:51;;;;;;;10.03;5.73;;;;;;;;;;5035512;28;20414;-66
2021/04/14 03:19:17;;;;;;;7.57;5.77;;;;;;;;;;5055083;28;20402;-65
2021/04/14 03:21:43;;;;;;;10.63;6.50;;;;;;;;;;5053492;28;20414;-67
2021/04/14 03:24:09;;;;;;;9.40;6.97;;;;;;;;;;5054599;28;20936;-66
2021/04/14 03:26:35;;;;;;;8.43;5.67;;;;;;;;;;5054540;28;20502;-65
2021/04/14 03:29:01;;;;;;;8.63;5.83;;;;;;;;;;5035126;28;20839;-66
2021/04/14 03:31:27;;;;;;;9.93;6.57;;;;;;;;;;5034803;28;20399;-65
2021/04/14 03:33:54;;;;;;;8.27;5.63;;;;;;;;;;5051329;28;20481;-65
2021/04/14 03:36:20;;;;;;;10.33;6.30;;;;;;;;;;5054442;28;20444;-66
2021/04/14 03:38:46;;;;;;;9.23;5.83;;;;;;;;;;5053154;28;20791;-65
2021/04/14 03:41:12;;;;;;;8.83;5.50;;;;;;;;;;5054364;28;20402;-66
2021/04/14 03:43:38;;;;;;;6.47;5.30;;;;;;;;;;5053164;28;20943;-65
2021/04/14 03:46:06;;;;;;;9.33;6.40;;;;;;;;;;5054215;28;21009;-65
2021/04/14 03:48:32;;;;;;;17.70;6.33;;;;;;;;;;5039946;28;20475;-65
2021/04/14 03:50:58;;;;;;;10.80;6.63;;;;;;;;;;5034380;28;20744;-65
2021/04/14 03:53:29;;;;;;;8.47;6.50;;;;;;;;;;5034251;28;20443;-65
2021/04/14 03:55:58;;;;;;;9.43;6.63;;;;;;;;;;5034391;28;20409;-66
2021/04/14 03:58:25;;;;;;;8.90;6.80;;;;;;;;;;5045998;28;20428;-65
2021/04/14 04:00:52;;;;;;;12.20;7.37;;;;;;;;;;5054216;28;20403;-65
2021/04/14 04:03:19;;;;;;;11.83;7.87;;;;;;;;;;5045622;28;20924;-66
2021/04/14 04:05:46;;;;;;;12.30;6.63;;;;;;;;;;5034260;28;20446;-65
2021/04/14 04:08:12;;;;;;;10.77;6.00;;;;;;;;;;5039596;28;20771;-65
2021/04/14 04:10:38;;;;;;;9.37;6.03;;;;;;;;;;5054409;28;20494;-65
2021/04/14 04:13:05;;;;;;;10.87;7.40;;;;;;;;;;5052940;28;20452;-65
2021/04/14 04:15:31;;;;;;;13.33;6.83;;;;;;;;;;5050651;28;20454;-65
2021/04/14 04:17:57;;;;;;;12.23;7.23;;;;;;;;;;5053701;28;20412;-65
2021/04/14 04:20:23;;;;;;;7.97;5.77;;;;;;;;;;5051728;28;20867;-65
2021/04/14 04:22:50;;;;;;;21.00;8.23;;;;;;;;;;5053719;28;20490;-66
2021/04/14 04:25:16;;;;;;;11.87;6.93;;;;;;;;;;5037643;28;20976;-65
2021/04/14 04:27:42;;;;;;;11.77;6.80;;;;;;;;;;5033903;28;20408;-65
2021/04/14 04:30:09;;;;;;;10.63;6.37;;;;;;;;;;5047396;28;20422;-65
2021/04/14 04:32:35;;;;;;;13.30;6.20;;;;;;;;;;5052892;28;20891;-65
2021/04/14 04:35:01;;;;;;;9.67;6.13;;;;;;;;;;5052605;28;20479;-65
2021/04/14 04:37:27;;;;;;;8.97;6.43;;;;;;;;;;5053284;28;20412;-65
2021/04/14 04:39:53;;;;;;;10.93;7.87;;;;;;;;;;5052679;28;20429;-65
2021/04/14 04:42:19;;;;;;;10.10;6.50;;;;;;;;;;5053666;28;20773;-65
2021/04/14 04:44:45;;;;;;;15.03;7.33;;;;;;;;;;5042624;28;20464;-65
2021/04/14 04:47:12;;;;;;;17.73;7.27;;;;;;;;;;5033400;28;20434;-64
2021/04/14 04:49:38;;;;;;;9.30;6.53;;;;;;;;;;5041960;28;20434;-66
2021/04/14 04:52:04;;;;;;;12.00;7.63;;;;;;;;;;5053644;28;20404;-66
2021/04/14 04:54:33;;;;;;;11.67;7.00;;;;;;;;;;5051862;28;20555;-66
2021/04/14 04:57:00;;;;;;;9.33;6.80;;;;;;;;;;5053224;28;20504;-66
2021/04/14 04:59:26;;;;;;;11.30;7.50;;;;;;;;;;5045693;28;20435;-66
2021/04/14 05:01:57;;;;;;;13.03;7.47;;;;;;;;;;5033360;28;20404;-66
2021/04/14 05:04:23;;;;;;;12.13;6.70;;;;;;;;;;5033302;28;20489;-66
2021/04/14 05:06:49;;;;;;;11.47;8.27;;;;;;;;;;5033477;28;20407;-66
2021/04/14 05:09:15;;;;;;;11.07;6.40;;;;;;;;;;5037647;28;20421;-66
2021/04/14 05:11:41;;;;;;;11.23;7.70;;;;;;;;;;5053148;28;20412;-66
2021/04/14 05:14:08;;;;;;;14.00;8.47;;;;;;;;;;5048721;28;20452;-66
2021/04/14 05:16:34;;;;;;;12.93;7.97;;;;;;;;;;5033469;28;20405;-66
2021/04/14 05:19:00;;;;;;;13.40;8.17;;;;;;;;;;5038925;28;20483;-66
2021/04/14 05:21:26;;;;;;;14.13;8.97;;;;;;;;;;5033136;28;20497;-66
2021/04/14 05:23:53;;;;;;;11.87;7.60;;;;;;;;;;5033774;28;20459;-66
2021/04/14 05:26:20;;;;;;;12.10;7.80;;;;;;;;;;5053117;28;20800;-66
2021/04/14 05:28:46;;;;;;;13.10;8.30;;;;;;;;;;5051890;28;20435;-66
2021/04/14 05:31:13;;;;;;;18.77;7.67;;;;;;;;;;5053061;28;20402;-66
2021/04/14 05:33:39;;;;;;;14.80;9.03;;;;;;;;;;5053163;28;20924;-65
2021/04/14 05:36:07;;;;;;;16.10;8.40;;;;;;;;;;5052140;28;20917;-65
2021/04/14 05:38:33;;;;;;;14.40;7.83;;;;;;;;;;5053298;28;20461;-65
2021/04/14 05:40:59;;;;;;;14.37;7.83;;;;;;;;;;5051724;28;20432;-65
2021/04/14 05:43:27;;;;;;;12.03;8.53;;;;;;;;;;5049489;28;21404;-65
2021/04/14 05:45:55;;;;;;;13.27;7.63;;;;;;;;;;5035939;28;20555;-66
2021/04/14 05:48:21;;;;;;;11.13;8.40;;;;;;;;;;5036904;28;20981;-65
2021/04/14 05:50:47;;;;;;;11.73;7.80;;;;;;;;;;5051271;28;20418;-65
2021/04/14 05:53:13;;;;;;;16.63;8.53;;;;;;;;;;5056470;28;20468;-66
2021/04/14 05:55:39;;;;;;;12.63;7.77;;;;;;;;;;5054799;28;20470;-66
2021/04/14 05:58:05;;;;;;;13.07;8.90;;;;;;;;;;5056687;28;20893;-65
2021/04/14 06:00:31;;;;;;;10.77;7.23;;;;;;;;;;5055606;28;20450;-65
2021/04/14 06:02:57;;;;;;;12.90;8.37;;;;;;;;;;5056320;28;20454;-66
2021/04/14 06:05:25;;;;;;;19.03;7.60;;;;;;;;;;5054337;28;20458;-66
2021/04/14 06:07:51;;;;;;;14.00;8.47;;;;;;;;;;5053339;28;20484;-65
2021/04/14 06:10:19;;;;;;;10.47;6.93;;;;;;;;;;5053855;28;20528;-66
2021/04/14 06:12:46;;;;;;;14.00;7.97;;;;;;;;;;5056490;28;20920;-65
2021/04/14 06:15:13;;;;;;;11.00;7.07;;;;;;;;;;5052963;28;20457;-66
2021/04/14 06:17:40;;;;;;;14.80;7.80;;;;;;;;;;5055686;28;20425;-63
2021/04/14 06:20:07;;;;;;;7.80;6.13;;;;;;;;;;5053959;28;20429;-64
2021/04/14 06:22:35;;;;;;;13.03;6.87;;;;;;;;;;5043182;28;20429;-63
2021/04/14 06:25:01;;;;;;;10.17;6.60;;;;;;;;;;5048750;28;20462;-65
2021/04/14 06:27:42;;;;;;;10.80;6.90;;;;;;;;;;5055456;28;20414;-64
2021/04/14 06:30:09;;;;;;;12.70;6.07;;;;;;;;;;5054537;28;20418;-64
2021/04/14 06:32:35;;;;;;;9.20;5.93;;;;;;;;;;5055079;28;20502;-66
2021/04/14 06:35:01;;;;;;;9.60;6.67;;;;;;;;;;5054335;28;20981;-64
2021/04/14 06:37:27;;;;;;;11.00;7.00;;;;;;;;;;5055624;28;20852;-66
2021/04/14 06:42:53;;;;;;;12.93;6.10;;;;;;;;;;5054950;28;20494;-65
2021/04/14 06:45:28;;;;;;;8.83;6.10;;;;;;;;;;5049411;28;20478;-63
2021/04/14 06:48:00;;;;;;;10.73;5.97;;;;;;;;;;5054716;28;20908;-65
2021/04/14 06:50:34;;;;;;;7.00;5.80;;;;;;;;;;5054678;28;20792;-65
2021/04/14 06:53:22;;;;;;;9.00;5.03;;;;;;;;;;5054718;28;20919;-66
2021/04/14 06:56:09;;;;;;;6.63;5.13;;;;;;;;;;5044407;28;20443;-65
2021/04/14 06:58:56;;;;;;;7.57;5.67;;;;;;;;;;5049753;28;20461;-66
2021/04/14 07:01:26;;;;;;;7.73;5.50;;;;;;;;;;5048420;28;20430;-66
2021/04/14 07:04:02;;;;;;;11.70;5.00;;;;;;;;;;5047880;28;20524;-66
2021/04/14 07:06:29;;;;;;;7.13;5.60;;;;;;;;;;5048004;28;20521;-67
2021/04/14 07:09:13;;;;;;;11.40;5.00;;;;;;;;;;5052470;28;20520;-67
2021/04/14 07:11:39;;;;;;;6.80;5.40;;;;;;;;;;5051694;28;20176;-65
2021/04/14 07:14:05;;;;;;;9.40;5.30;;;;;;;;;;5053871;28;20600;-65
2021/04/14 07:16:31;;;;;;;10.33;5.70;;;;;;;;;;5052725;28;20930;-65
2021/04/14 07:18:58;;;;;;;6.70;4.47;;;;;;;;;;5051728;28;20426;-65
2021/04/14 07:21:29;;;;;;;12.20;6.17;;;;;;;;;;5051715;28;20422;-65
2021/04/14 07:24:00;;;;;;;8.83;4.80;;;;;;;;;;5053200;28;20470;-65
2021/04/14 07:26:29;;;;;;;7.10;5.40;;;;;;;;;;5053459;28;20529;-65
2021/04/14 07:29:14;;;;;;;11.53;4.50;;;;;;;;;;5053001;28;20453;-65
2021/04/14 07:31:58;;;;;;;9.07;4.40;;;;;;;;;;5043945;28;20456;-65
2021/04/14 07:34:30;;;;;;;5.80;3.77;;;;;;;;;;5042030;28;20450;-66
2021/04/14 07:37:32;;;;;;;5.77;3.87;;;;;;;;;;5047073;28;20432;-65
2021/04/14 07:40:16;;;;;;;4.10;3.17;;;;;;;;;;4967998;28;20443;-67
2021/04/14 07:42:51;;;;;;;6.60;4.50;;;;;;;;;;5044504;28;20516;-65
2021/04/14 07:45:26;;;;;;;5.07;3.57;;;;;;;;;;5048031;28;20990;-66
2021/04/14 07:47:53;;;;;;;8.63;3.77;;;;;;;;;;5047011;28;20412;-64
2021/04/14 07:50:23;;;;;;;6.40;4.23;;;;;;;;;;5060131;28;20439;-66
2021/04/14 07:52:49;;;;;;;7.90;4.10;;;;;;;;;;5051784;28;20469;-67
2021/04/14 07:55:29;;;;;;;4.67;3.37;;;;;;;;;;5053239;28;20468;-65
2021/04/14 07:58:04;;;;;;;6.80;3.93;;;;;;;;;;5041841;28;20549;-65
2021/04/14 08:00:34;;;;;;;7.60;4.20;;;;;;;;;;5041788;28;20460;-63
2021/04/14 08:03:17;;;;;;;4.73;3.20;;;;;;;;;;5039910;28;20444;-66
2021/04/14 08:05:44;;;;;;;6.17;3.90;;;;;;;;;;5043234;28;20456;-64
2021/04/14 08:08:30;;;;;;;8.77;4.60;;;;;;;;;;5049569;28;20425;-65
2021/04/14 08:11:01;;;;;;;5.17;3.37;;;;;;;;;;5041717;28;20440;-64
2021/04/14 08:13:31;;;;;;;5.10;3.40;;;;;;;;;;5051398;28;20429;-65
2021/04/14 08:15:58;;;;;;;6.77;3.83;;;;;;;;;;5033465;28;20850;-66
2021/04/14 08:18:28;;;;;;;8.87;3.70;;;;;;;;;;5051119;28;20438;-66
2021/04/14 08:21:06;;;;;;;11.00;3.50;;;;;;;;;;5048038;28;20525;-65
2021/04/14 08:23:33;;;;;;;5.60;3.23;;;;;;;;;;5046160;28;20842;-65
2021/04/14 08:26:00;;;;;;;8.43;3.90;;;;;;;;;;5048071;28;20482;-65
2021/04/14 08:28:41;;;;;;;4.03;3.20;;;;;;;;;;5050280;28;20436;-65
2021/04/14 08:31:34;;;;;;;7.40;3.40;;;;;;;;;;5047209;28;20431;-64
2021/04/14 08:34:08;;;;;;;3.97;3.00;;;;;;;;;;5049358;28;20493;-64
2021/04/14 08:36:40;;;;;;;7.37;3.37;;;;;;;;;;5044617;28;20428;-64
2021/04/14 08:39:12;;;;;;;5.40;3.33;;;;;;;;;;5048296;28;20829;-66
2021/04/14 08:41:38;;;;;;;4.70;2.40;;;;;;;;;;5050216;28;20439;-63
2021/04/14 08:44:15;;;;;;;6.50;3.70;;;;;;;;;;5051430;28;20434;-65
2021/04/14 08:46:43;;;;;;;5.23;2.83;;;;;;;;;;5041111;28;20476;-65
2021/04/14 08:49:12;;;;;;;4.23;3.03;;;;;;;;;;5039081;28;20434;-65
2021/04/14 08:51:40;;;;;;;5.90;2.93;;;;;;;;;;5047107;28;20439;-64
2021/04/14 08:54:06;;;;;;;5.50;2.80;;;;;;;;;;5051357;28;20774;-64
2021/04/14 08:56:33;;;;;;;6.50;3.17;;;;;;;;;;5047838;28;20942;-64
2021/04/14 08:58:59;;;;;;;4.43;3.00;;;;;;;;;;5033421;28;20860;-65
2021/04/14 09:01:26;;;;;;;6.10;3.60;;;;;;;;;;5047934;28;20912;-66
2021/04/14 09:03:54;;;;;;;5.33;3.77;;;;;;;;;;5031083;28;20562;-65
2021/04/14 09:06:21;;;;;;;5.80;3.50;;;;;;;;;;5041979;28;20452;-66
2021/04/14 09:08:50;;;;;;;6.50;4.10;;;;;;;;;;5053640;28;20772;-68
2021/04/14 09:11:24;;;;;;;6.70;3.60;;;;;;;;;;5047913;28;20432;-66
2021/04/14 09:13:54;;;;;;;5.63;3.20;;;;;;;;;;5047338;28;20450;-67
2021/04/14 09:16:35;;;;;;;6.77;3.80;;;;;;;;;;5047426;28;20788;-67
2021/04/14 09:19:11;;;;;;;4.67;3.97;;;;;;;;;;5048406;28;20433;-68
2021/04/14 09:21:51;;;;;;;10.27;3.63;;;;;;;;;;5048769;28;20516;-67
2021/04/14 09:24:21;;;;;;;5.20;3.40;;;;;;;;;;5046731;28;20416;-66
2021/04/14 09:26:54;;;;;;;4.13;3.57;;;;;;;;;;5050521;28;20184;-65
2021/04/14 09:29:26;;;;;;;4.50;3.40;;;;;;;;;;5026134;28;20494;-67
2021/04/14 09:31:55;;;;;;;4.77;3.70;;;;;;;;;;5037580;28;22043;-64
2021/04/14 09:34:32;;;;;;;4.30;2.87;;;;;;;;;;5042982;28;20795;-64
2021/04/14 09:37:19;;;;;;;5.67;3.40;;;;;;;;;;5047901;28;20485;-67
2021/04/14 09:40:01;;;;;;;4.22;3.00;;;;;;;;;;5046129;28;20497;-67
2021/04/14 09:42:34;;;;;;;6.60;3.28;;;;;;;;;;5045681;28;20432;-69
2021/04/14 09:45:12;;;;;;;4.77;2.70;;;;;;;;;;5045790;28;20644;-68
2021/04/14 09:47:38;;;;;;;6.13;3.30;;;;;;;;;;5048770;28;20465;-67
2021/04/14 09:50:19;;;;;;;3.80;2.57;;;;;;;;;;5046602;28;20420;-66
2021/04/14 09:52:53;;;;;;;5.90;3.87;;;;;;;;;;5053815;28;20462;-67
2021/04/14 09:55:31;;;;;;;5.57;2.90;;;;;;;;;;5050141;28;20470;-66
2021/04/14 09:57:58;;;;;;;3.60;2.43;;;;;;;;;;5049006;28;20431;-69
2021/04/14 10:00:25;;;;;;;3.03;2.63;;;;;;;;;;5029427;28;20540;-66
2021/04/14 10:02:52;;;;;;;5.25;2.47;;;;;;;;;;5049884;28;20455;-67
2021/04/14 10:05:18;;;;;;;4.90;2.80;;;;;;;;;;5046427;28;20210;-68
2021/04/14 10:07:45;;;;;;;5.37;2.30;;;;;;;;;;5049261;28;20515;-67
2021/04/14 10:10:17;;;;;;;3.45;1.90;;;;;;;;;;5051985;28;20420;-65
2021/04/14 10:12:44;;;;;;;5.07;2.50;;;;;;;;;;5045505;28;20177;-65
2021/04/14 10:15:10;;;;;;;4.90;2.20;;;;;;;;;;5053368;28;20472;-67
2021/04/14 10:17:36;;;;;;;4.90;2.80;;;;;;;;;;5036941;28;20804;-68
2021/04/14 10:20:09;;;;;;;5.70;2.63;;;;;;;;;;5035623;28;20408;-68
2021/04/14 10:22:43;;;;;;;6.30;2.40;;;;;;;;;;5053757;28;20412;-67
2021/04/14 10:25:09;;;;;;;4.23;3.00;;;;;;;;;;5031718;28;20224;-67
2021/04/14 10:27:36;;;;;;;6.30;2.90;;;;;;;;;;5053777;28;20432;-66
2021/04/14 10:30:06;;;;;;;5.13;2.67;;;;;;;;;;5054294;28;20413;-65
2021/04/14 10:32:32;;;;;;;4.83;3.03;;;;;;;;;;5046415;28;20761;-66
2021/04/14 10:35:10;;;;;;;5.30;2.60;;;;;;;;;;5050237;28;20806;-66
2021/04/14 10:37:49;;;;;;;3.57;2.60;;;;;;;;;;5048335;28;20432;-67
2021/04/14 10:40:19;;;;;;;5.47;2.53;;;;;;;;;;5047849;28;20503;-64
2021/04/14 10:42:46;;;;;;;5.97;2.50;;;;;;;;;;5050700;28;20273;-66
2021/04/14 10:45:13;;;;;;;5.10;2.80;;;;;;;;;;5051282;28;20493;-65
2021/04/14 10:47:41;;;;;;;5.03;2.50;;;;;;;;;;5052169;28;20434;-64
2021/04/14 10:50:12;;;;;;;7.33;2.57;;;;;;;;;;5050932;28;20416;-65
2021/04/14 10:52:38;;;;;;;6.53;2.33;;;;;;;;;;5048625;28;20434;-65
2021/04/14 10:55:14;;;;;;;7.37;2.60;;;;;;;;;;5051135;28;20504;-66
2021/04/14 10:57:42;;;;;;;6.07;2.60;;;;;;;;;;5032313;28;20431;-67
2021/04/14 11:00:14;;;;;;;3.07;1.80;;;;;;;;;;5046496;28;20423;-65
2021/04/14 11:02:44;;;;;;;8.07;2.67;;;;;;;;;;5046610;28;20904;-66
2021/04/14 11:05:13;;;;;;;3.63;2.33;;;;;;;;;;5050654;28;20463;-66
2021/04/14 11:07:41;;;;;;;4.87;2.23;;;;;;;;;;5048798;28;20526;-66
2021/04/14 11:10:09;;;;;;;4.47;2.20;;;;;;;;;;5053320;28;20498;-66
2021/04/14 11:12:36;;;;;;;3.20;2.30;;;;;;;;;;5050982;28;20420;-67
2021/04/14 11:15:08;;;;;;;4.43;2.77;;;;;;;;;;5053655;28;20446;-66
2021/04/14 11:17:35;;;;;;;2.70;2.10;;;;;;;;;;5052519;28;20427;-67
2021/04/14 11:20:05;;;;;;;3.77;2.40;;;;;;;;;;5055394;28;20431;-66
2021/04/14 11:22:44;;;;;;;5.23;2.57;;;;;;;;;;5056944;28;20907;-67
2021/04/14 11:25:11;;;;;;;2.67;2.30;;;;;;;;;;5040571;28;20455;-66
2021/04/14 11:27:37;;;;;;;4.73;2.57;;;;;;;;;;5056430;28;20439;-67
2021/04/14 11:30:06;;;;;;;3.67;2.00;;;;;;;;;;5045726;28;20456;-66
2021/04/14 11:32:32;;;;;;;3.17;2.20;;;;;;;;;;5057266;28;20476;-66
2021/04/14 11:35:00;;;;;;;4.83;2.57;;;;;;;;;;5056464;28;20445;-67
2021/04/14 11:37:28;;;;;;;6.40;2.40;;;;;;;;;;5053815;28;20431;-67
2021/04/14 11:40:02;;;;;;;4.80;2.83;;;;;;;;;;5052718;28;20432;-66
2021/04/14 11:42:40;;;;;;;3.00;2.40;;;;;;;;;;5056610;28;20465;-66
2021/04/14 11:45:07;;;;;;;5.27;2.80;;;;;;;;;;5057177;28;20478;-66
2021/04/14 11:47:35;;;;;;;3.53;2.20;;;;;;;;;;5054463;28;20434;-66
2021/04/14 11:50:20;;;;;;;4.63;2.23;;;;;;;;;;5057723;28;20430;-66
2021/04/14 11:52:56;;;;;;;2.70;2.20;;;;;;;;;;5055338;28;20433;-66
2021/04/14 11:55:22;;;;;;;3.87;2.70;;;;;;;;;;5050218;28;20874;-66
2021/04/14 11:57:54;;;;;;;6.50;2.87;;;;;;;;;;5049548;28;20451;-66
2021/04/14 12:00:21;;;;;;;4.00;2.80;;;;;;;;;;5055365;28;20404;-65
2021/04/14 12:02:49;;;;;;;3.27;2.70;;;;;;;;;;5055678;28;20425;-66
2021/04/14 12:05:15;;;;;;;5.10;2.87;;;;;;;;;;5057921;28;20466;-66
2021/04/14 12:07:41;;;;;;;5.23;2.60;;;;;;;;;;5040285;28;20541;-66
2021/04/14 12:10:07;;;;;;;5.90;2.70;;;;;;;;;;5056199;28;20420;-66
2021/04/14 12:12:34;;;;;;;5.17;2.50;;;;;;;;;;5027789;28;20437;-66
2021/04/14 12:15:00;;;;;;;4.87;2.93;;;;;;;;;;5050823;28;20431;-68
2021/04/14 12:17:26;;;;;;;2.57;2.13;;;;;;;;;;5057053;28;20458;-66
2021/04/14 12:19:53;;;;;;;4.33;2.30;;;;;;;;;;5057207;28;20493;-66
2021/04/14 12:22:19;;;;;;;4.33;2.20;;;;;;;;;;5058881;28;20470;-66
2021/04/14 12:24:46;;;;;;;6.27;2.83;;;;;;;;;;5059185;28;20489;-66
2021/04/14 12:27:12;;;;;;;3.00;1.90;;;;;;;;;;5057827;28;20786;-65
2021/04/14 12:29:39;;;;;;;4.17;2.30;;;;;;;;;;5041124;28;20500;-65
2021/04/14 12:32:05;;;;;;;5.47;2.63;;;;;;;;;;5056155;28;20518;-65
2021/04/14 12:34:32;;;;;;;5.53;2.80;;;;;;;;;;5058690;28;20574;-66
2021/04/14 12:36:58;;;;;;;9.97;2.33;;;;;;;;;;5056995;28;20426;-66
2021/04/14 12:39:27;;;;;;;8.50;3.00;;;;;;;;;;5057998;28;20467;-66
2021/04/14 12:41:53;;;;;;;4.57;2.83;;;;;;;;;;5049704;28;20521;-66
2021/04/14 12:44:21;;;;;;;4.00;2.43;;;;;;;;;;5050039;28;20437;-67
2021/04/14 12:46:49;;;;;;;3.90;2.73;;;;;;;;;;5054643;28;20434;-66
2021/04/14 12:49:16;;;;;;;4.93;2.87;;;;;;;;;;5058078;28;20412;-66
2021/04/14 12:51:49;;;;;;;4.10;2.20;;;;;;;;;;5055860;28;20440;-68
2021/04/14 12:54:15;;;;;;;3.80;2.80;;;;;;;;;;5055053;28;20567;-66
2021/04/14 12:56:43;;;;;;;4.73;3.30;;;;;;;;;;5037953;28;20428;-65
2021/04/14 12:59:11;;;;;;;3.27;2.43;;;;;;;;;;5056832;28;20856;-65
2021/04/14 13:01:38;;;;;;;5.97;3.17;;;;;;;;;;5055242;28;20451;-67
2021/04/14 13:04:06;;;;;;;5.90;3.23;;;;;;;;;;5054589;28;20835;-66
2021/04/14 13:06:36;;;;;;;8.30;3.37;;;;;;;;;;5054109;28;20481;-67
2021/04/14 13:09:04;;;;;;;11.00;2.80;;;;;;;;;;5056737;28;20405;-66
2021/04/14 13:11:32;;;;;;;3.73;2.50;;;;;;;;;;5056503;28;20432;-65
2021/04/14 13:13:59;;;;;;;4.33;3.03;;;;;;;;;;5057732;28;20429;-66
2021/04/14 13:16:25;;;;;;;4.77;2.47;;;;;;;;;;5039490;28;20444;-66
2021/04/14 13:18:51;;;;;;;4.27;2.47;;;;;;;;;;5057087;28;20429;-66
2021/04/14 13:21:38;;;;;;;3.27;2.70;;;;;;;;;;5056305;28;20408;-66
2021/04/14 13:24:04;;;;;;;5.03;2.60;;;;;;;;;;5057265;28;20448;-66
2021/04/14 13:26:43;;;;;;;4.97;2.43;;;;;;;;;;5055712;28;20483;-67
2021/04/14 13:29:19;;;;;;;3.67;3.10;;;;;;;;;;5056335;28;20412;-65
2021/04/14 13:31:58;;;;;;;3.53;2.70;;;;;;;;;;5033871;28;20428;-65
2021/04/14 13:34:27;;;;;;;6.03;3.03;;;;;;;;;;5038561;28;20447;-67
2021/04/14 13:37:07;;;;;;;3.90;2.97;;;;;;;;;;5052980;28;20489;-66
2021/04/14 13:39:42;;;;;;;3.30;3.00;;;;;;;;;;5055482;28;20411;-66
2021/04/14 13:42:10;;;;;;;3.33;2.33;;;;;;;;;;5049444;28;20439;-66
2021/04/14 13:44:52;;;;;;;6.63;3.30;;;;;;;;;;5054368;28;20462;-66
2021/04/14 13:47:37;;;;;;;4.70;2.80;;;;;;;;;;5053596;28;20457;-66
2021/04/14 13:50:06;;;;;;;5.00;2.60;;;;;;;;;;5054017;28;20916;-66
2021/04/14 13:52:32;;;;;;;3.43;2.87;;;;;;;;;;5052429;28;20553;-66
2021/04/14 13:54:59;;;;;;;5.70;3.63;;;;;;;;;;5053787;28;20475;-66
2021/04/14 13:57:25;;;;;;;8.20;3.10;;;;;;;;;;5033702;28;20440;-66
2021/04/14 13:59:54;;;;;;;6.80;3.00;;;;;;;;;;5053350;28;20432;-66
2021/04/14 14:02:23;;;;;;;3.97;3.17;;;;;;;;;;5050425;28;20426;-67
2021/04/14 14:04:50;;;;;;;3.33;2.67;;;;;;;;;;5050947;28;20870;-66
2021/04/14 14:07:36;;;;;;;5.13;3.00;;;;;;;;;;5054669;28;20550;-66
2021/04/14 14:10:06;;;;;;;5.00;3.20;;;;;;;;;;5038629;28;20512;-67
2021/04/14 14:12:37;;;;;;;4.00;3.13;;;;;;;;;;5048205;28;20553;-66
2021/04/14 14:15:06;;;;;;;3.33;2.33;;;;;;;;;;5057252;28;20505;-65
2021/04/14 14:17:41;;;;;;;3.27;2.60;;;;;;;;;;5056554;28;20428;-67
2021/04/14 14:20:08;;;;;;;3.67;3.03;;;;;;;;;;5056887;28;20399;-67
2021/04/14 14:22:35;;;;;;;2.90;2.70;;;;;;;;;;5055837;28;20438;-67
2021/04/14 14:25:02;;;;;;;5.37;2.47;;;;;;;;;;5056615;28;20486;-67
2021/04/14 14:27:28;;;;;;;3.27;2.40;;;;;;;;;;5056155;28;20418;-67
2021/04/14 14:29:54;;;;;;;3.77;2.73;;;;;;;;;;5056544;28;20516;-67
2021/04/14 14:32:21;;;;;;;3.60;2.83;;;;;;;;;;5054923;28;20999;-67
2021/04/14 14:34:51;;;;;;;6.17;3.20;;;;;;;;;;5056532;28;20497;-66
2021/04/14 14:37:29;;;;;;;3.13;2.57;;;;;;;;;;5059160;28;20479;-66
2021/04/14 14:39:55;;;;;;;3.83;3.00;;;;;;;;;;5060346;28;20498;-66
2021/04/14 14:42:27;;;;;;;6.20;2.83;;;;;;;;;;5059340;28;20911;-67
2021/04/14 14:45:17;;;;;;;3.80;2.63;;;;;;;;;;5057601;28;20478;-66
2021/04/14 14:47:48;;;;;;;3.20;2.40;;;;;;;;;;5046966;28;20437;-67
2021/04/14 14:50:17;;;;;;;3.00;2.43;;;;;;;;;;5058711;28;20762;-66
2021/04/14 14:52:44;;;;;;;6.60;3.13;;;;;;;;;;5056811;28;20436;-67
2021/04/14 14:55:11;;;;;;;4.63;2.80;;;;;;;;;;5058218;28;20463;-66